Time;durP1;ratioP1;P1;durP2;ratioP2;P2;SDS_P1;SDS_P2;PMS_P1;PMS_P2;Temp;Humidity;BMP_temperature;BMP_pressure;BME280_temperature;BME280_humidity;BME280_pressure;Samples;Min_cycle;Max_cycle;Signal;HPM_P1;HPM_P2
2023/03/08 00:01:28;;;;;;;1.77;0.55;;;0.10;99.90;;;;;;6156770;23;20012;-82
2023/03/08 00:04:36;;;;;;;;;;;;;;;;;;;;;
2023/03/08 00:07:52;;;;;;;1.50;0.60;;;0.10;99.90;;;;;;6186375;23;20108;-82
2023/03/08 00:11:16;;;;;;;;;;;;;;;;;;;;;
2023/03/08 00:13:57;;;;;;;1.67;0.55;;;-0.10;99.90;;;;;;6182857;23;20624;-82
2023/03/08 00:17:01;;;;;;;;;;;;;;;;;;;;;
2023/03/08 00:19:56;;;;;;;1.60;0.60;;;0.90;99.90;;;;;;6174935;23;20965;-81
2023/03/08 00:22:34;;;;;;;3.47;1.48;;;-0.20;99.90;;;;;;6158532;23;20079;-81
2023/03/08 00:25:09;;;;;;;3.50;1.08;;;-0.30;99.90;;;;;;6157949;23;20017;-82
2023/03/08 00:27:56;;;;;;;1.80;0.70;;;0.30;99.90;;;;;;6161667;23;20052;-82
2023/03/08 00:30:51;;;;;;;4.25;0.82;;;0.10;99.90;;;;;;6138614;23;20013;-81
2023/03/08 00:34:14;;;;;;;4.22;0.90;;;-0.20;99.90;;;;;;6159535;23;20064;-81
2023/03/08 00:37:06;;;;;;;2.65;0.85;;;-0.20;99.90;;;;;;6182320;23;20027;-81
2023/03/08 00:40:10;;;;;;;2.63;0.90;;;-0.20;99.90;;;;;;6162303;23;20089;-81
2023/03/08 00:43:10;;;;;;;3.55;1.17;;;-0.30;99.90;;;;;;6188539;23;20021;-82
2023/03/08 00:46:20;;;;;;;3.63;1.10;;;-0.30;99.90;;;;;;6187782;23;20048;-82
2023/03/08 00:49:13;;;;;;;2.65;1.30;;;-0.30;99.90;;;;;;6163190;23;20013;-82
2023/03/08 00:52:05;;;;;;;;;;;;;;;;;;;;;
2023/03/08 00:55:06;;;;;;;;;;;;;;;;;;;;;
2023/03/08 00:57:56;;;;;;;3.58;1.15;;;-0.30;99.90;;;;;;6184383;23;20016;-82
2023/03/08 01:00:43;;;;;;;6.38;1.02;;;-0.30;99.90;;;;;;6164139;23;20019;-82
2023/03/08 01:03:27;;;;;;;4.68;2.10;;;-0.30;99.90;;;;;;6164640;23;20024;-81
2023/03/08 01:06:30;;;;;;;2.28;0.93;;;-0.40;99.90;;;;;;6178604;23;20028;-82
2023/03/08 01:09:22;;;;;;;5.57;0.98;;;-0.40;99.90;;;;;;6163562;23;20017;-82
2023/03/08 01:12:21;;;;;;;5.40;1.42;;;0.10;99.90;;;;;;6159243;23;20049;-82
2023/03/08 01:15:05;;;;;;;4.28;1.25;;;-0.60;99.90;;;;;;6171441;23;20017;-82
2023/03/08 01:17:49;;;;;;;5.22;1.70;;;0.50;99.90;;;;;;6163149;23;20013;-81
2023/03/08 01:20:31;;;;;;;2.90;1.17;;;-0.50;99.90;;;;;;6162211;23;20074;-82
2023/03/08 01:23:49;;;;;;;3.88;1.13;;;0.00;99.90;;;;;;6158015;23;20079;-82
2023/03/08 01:27:06;;;;;;;2.03;1.23;;;-0.40;99.90;;;;;;6153154;23;20032;-82
2023/03/08 01:34:02;;;;;;;;;;;;;;;;;;;;;
2023/03/08 01:37:06;;;;;;;2.35;1.30;;;-0.10;99.90;;;;;;6188204;23;20027;-82
2023/03/08 01:39:53;;;;;;;2.08;1.02;;;0.30;99.90;;;;;;6137458;23;20063;-82
2023/03/08 01:49:45;;;;;;;;;;;;;;;;;;;;;
2023/03/08 02:05:38;;;;;;;4.32;3.17;;;0.10;99.90;;;;;;6128105;23;20023;-81
2023/03/08 02:12:09;;;;;;;;;;;;;;;;;;;;;
2023/03/08 02:14:59;;;;;;;6.78;4.63;;;-0.50;99.90;;;;;;6159189;23;20027;-81
2023/03/08 02:18:10;;;;;;;9.20;4.95;;;-0.30;99.90;;;;;;6078179;23;20049;-81
2023/03/08 02:21:13;;;;;;;8.10;5.35;;;-0.20;99.90;;;;;;6127059;23;20072;-82
2023/03/08 02:23:48;;;;;;;9.07;5.53;;;0.20;99.90;;;;;;6137290;23;20019;-82
2023/03/08 02:26:36;;;;;;;9.85;7.25;;;-0.10;99.90;;;;;;6158981;23;20024;-81
2023/03/08 02:29:15;;;;;;;8.73;5.95;;;-0.50;99.90;;;;;;6162280;23;20013;-82
2023/03/08 02:32:16;;;;;;;8.48;6.10;;;-0.50;99.90;;;;;;6163576;23;20030;-81
2023/03/08 02:35:03;;;;;;;10.45;7.53;;;-0.60;99.90;;;;;;6156585;23;20505;-82
2023/03/08 02:38:08;;;;;;;11.55;6.80;;;-0.20;99.90;;;;;;6158295;23;20410;-81
2023/03/08 02:41:38;;;;;;;;;;;;;;;;;;;;;
2023/03/08 02:47:30;;;;;;;11.77;7.30;;;-1.00;99.90;;;;;;6129774;23;20758;-82
2023/03/08 02:50:35;;;;;;;8.15;6.90;;;-0.30;99.90;;;;;;6155572;23;20017;-82
2023/03/08 02:53:30;;;;;;;;;;;;;;;;;;;;;
2023/03/08 02:59:27;;;;;;;9.32;7.10;;;-0.50;99.90;;;;;;6155712;23;20096;-82
2023/03/08 03:02:19;;;;;;;9.68;7.82;;;-0.60;99.90;;;;;;6155599;23;20013;-81
2023/03/08 03:05:30;;;;;;;;;;;;;;;;;;;;;
2023/03/08 03:08:09;;;;;;;10.43;8.40;;;-0.40;99.90;;;;;;6157900;23;20013;-81
2023/03/08 03:10:47;;;;;;;10.18;7.30;;;-0.30;99.90;;;;;;6112002;23;20047;-81
2023/03/08 03:13:37;;;;;;;14.45;8.57;;;-0.70;99.90;;;;;;6137942;23;20029;-81
2023/03/08 03:16:20;;;;;;;9.68;7.00;;;-0.50;99.90;;;;;;6155475;23;20164;-82
2023/03/08 03:19:05;;;;;;;9.98;7.30;;;-0.70;99.90;;;;;;6156616;23;20021;-81
2023/03/08 03:22:59;;;;;;;16.25;8.50;;;-2.00;99.90;;;;;;6159005;23;20051;-82
2023/03/08 03:26:37;;;;;;;9.90;6.97;;;-0.70;99.90;;;;;;6156035;23;20024;-81
2023/03/08 03:29:41;;;;;;;11.10;7.27;;;-0.70;99.90;;;;;;6124463;23;20168;-81
2023/03/08 03:32:26;;;;;;;10.80;7.35;;;-0.70;99.90;;;;;;6110390;23;20021;-80
2023/03/08 03:34:56;;;;;;;11.52;8.02;;;-0.70;99.90;;;;;;6145735;23;20009;-81
2023/03/08 03:37:32;;;;;;;12.63;9.25;;;-0.70;99.90;;;;;;6153578;23;20025;-80
2023/03/08 03:40:43;;;;;;;12.60;7.50;;;-0.20;99.90;;;;;;6153461;23;20032;-82
2023/03/08 03:43:31;;;;;;;8.40;7.00;;;-0.80;99.90;;;;;;6175963;23;20100;-81
2023/03/08 03:46:23;;;;;;;9.18;6.90;;;-0.50;99.90;;;;;;6131148;23;20465;-81
2023/03/08 03:49:17;;;;;;;11.45;7.65;;;-0.90;99.90;;;;;;6155750;23;20016;-80
2023/03/08 03:52:18;;;;;;;11.43;7.20;;;-0.90;99.90;;;;;;6155019;23;20020;-81
2023/03/08 03:55:18;;;;;;;18.45;7.80;;;-1.00;99.90;;;;;;6157131;23;20015;-81
2023/03/08 03:58:44;;;;;;;14.82;7.43;;;-0.80;99.90;;;;;;6157820;23;20061;-81
2023/03/08 04:01:29;;;;;;;11.18;7.90;;;-0.90;99.90;;;;;;6157987;23;20009;-81
2023/03/08 04:04:22;;;;;;;9.43;7.38;;;-0.90;99.90;;;;;;6156356;23;20024;-81
2023/03/08 04:07:13;;;;;;;13.68;8.07;;;-0.90;99.90;;;;;;6159535;23;20025;-81
2023/03/08 04:10:34;;;;;;;11.45;7.38;;;-0.20;99.90;;;;;;6156301;23;20029;-81
2023/03/08 04:13:32;;;;;;;12.10;7.47;;;-0.60;99.90;;;;;;6137942;23;20026;-81
2023/03/08 04:16:52;;;;;;;12.43;7.82;;;-0.70;99.90;;;;;;6158667;23;20394;-81
2023/03/08 04:20:13;;;;;;;9.48;7.57;;;-0.80;99.90;;;;;;6095458;23;20014;-81
2023/03/08 04:23:05;;;;;;;11.15;8.05;;;-0.20;99.90;;;;;;6038150;23;20535;-81
2023/03/08 04:26:56;;;;;;;11.57;7.72;;;-0.90;99.90;;;;;;6038080;23;20026;-81
2023/03/08 04:30:06;;;;;;;17.65;7.75;;;-1.00;99.90;;;;;;6007218;23;20532;-81
2023/03/08 04:33:44;;;;;;;8.70;7.10;;;-0.50;99.90;;;;;;6034523;23;20234;-81
2023/03/08 04:37:27;;;;;;;10.98;7.35;;;-0.70;99.90;;;;;;6107449;23;20029;-81
2023/03/08 04:40:08;;;;;;;9.05;7.00;;;-0.70;99.90;;;;;;6156999;23;20028;-80
2023/03/08 04:43:24;;;;;;;9.88;6.90;;;-1.00;99.90;;;;;;6163191;23;20112;-81
2023/03/08 04:46:05;;;;;;;;;;;-1.20;99.90;;;;;;6157840;23;20021;-81
2023/03/08 04:49:01;;;;;;;10.13;5.93;;;-1.00;99.90;;;;;;6157377;23;19911;-81
2023/03/08 04:52:11;;;;;;;10.65;5.88;;;-0.90;99.90;;;;;;6157692;23;20022;-81
2023/03/08 04:55:38;;;;;;;9.70;6.22;;;-0.90;99.90;;;;;;6146638;23;20016;-81
2023/03/08 04:59:02;;;;;;;10.02;5.97;;;-1.10;99.90;;;;;;6159416;23;20028;-81
2023/03/08 05:02:13;;;;;;;7.32;5.22;;;-0.80;99.90;;;;;;6157555;23;20020;-81
2023/03/08 05:05:35;;;;;;;6.20;5.18;;;-0.70;99.90;;;;;;6142866;23;20014;-81
2023/03/08 05:08:41;;;;;;;8.25;5.32;;;-0.90;99.90;;;;;;6151228;23;20604;-81
2023/03/08 05:11:53;;;;;;;7.10;5.30;;;-1.00;99.90;;;;;;6071777;23;20109;-81
2023/03/08 05:15:41;;;;;;;9.35;5.38;;;-1.00;99.90;;;;;;6135764;23;20033;-81
2023/03/08 05:18:36;;;;;;;6.68;4.53;;;-0.40;99.90;;;;;;6154843;23;20128;-81
2023/03/08 05:21:38;;;;;;;8.90;5.40;;;-0.20;99.90;;;;;;6159642;23;20072;-82
2023/03/08 05:24:45;;;;;;;7.88;4.88;;;-0.90;99.90;;;;;;6214249;23;20017;-82
2023/03/08 05:27:51;;;;;;;7.72;5.05;;;-1.00;99.90;;;;;;6214774;23;20027;-80
2023/03/08 05:30:27;;;;;;;6.00;5.00;;;-0.70;99.90;;;;;;6162911;23;20551;-83
2023/03/08 05:32:55;;;;;;;6.43;5.07;;;-1.00;99.90;;;;;;6155208;23;20012;-80
2023/03/08 05:35:28;;;;;;;10.43;4.90;;;-1.00;99.90;;;;;;6132245;23;20120;-80
2023/03/08 05:37:56;;;;;;;11.60;5.10;;;-1.20;99.90;;;;;;6103917;23;20025;-79
2023/03/08 05:40:33;;;;;;;8.05;5.20;;;-1.00;99.90;;;;;;6152982;23;20013;-81
2023/03/08 05:43:27;;;;;;;8.57;5.43;;;-0.80;99.90;;;;;;6131463;23;20470;-81
2023/03/08 05:46:06;;;;;;;6.43;4.85;;;-1.10;99.90;;;;;;6153568;23;20069;-80
2023/03/08 05:48:35;;;;;;;6.07;4.78;;;-1.60;99.90;;;;;;6127385;23;20072;-80
2023/03/08 05:55:20;;;;;;;6.13;4.10;;;-0.40;99.90;;;;;;6152088;23;20017;-81
2023/03/08 06:02:42;;;;;;;8.57;4.78;;;-1.10;99.90;;;;;;5968314;23;20027;-81
2023/03/08 06:24:50;;;;;;;;;;;;;;;;;;;;;
2023/03/08 06:31:15;;;;;;;8.75;5.78;;;-1.00;99.90;;;;;;6040014;23;20037;-82
2023/03/08 06:34:47;;;;;;;16.17;5.63;;;-0.50;99.90;;;;;;5992326;23;20109;-82
2023/03/08 06:38:35;;;;;;;11.18;5.82;;;-1.00;99.90;;;;;;5983439;24;20088;-83
2023/03/08 06:42:37;;;;;;;11.35;4.72;;;-0.90;99.90;;;;;;5949778;24;20498;-81
2023/03/08 06:45:15;;;;;;;9.45;4.78;;;-0.70;99.90;;;;;;5939314;24;20044;-80
2023/03/08 06:48:51;;;;;;;8.27;4.78;;;-0.80;99.90;;;;;;5997297;23;20027;-81
2023/03/08 06:51:54;;;;;;;8.52;4.05;;;-0.30;99.90;;;;;;6043459;23;20018;-84
2023/03/08 06:54:48;;;;;;;4.82;3.53;;;-0.20;99.90;;;;;;6051661;23;20021;-82
2023/03/08 06:57:41;;;;;;;5.68;3.78;;;0.50;99.90;;;;;;6081642;23;20044;-81
2023/03/08 07:03:53;;;;;;;7.38;3.53;;;1.00;99.90;;;;;;6102636;23;20080;-82
2023/03/08 07:06:30;;;;;;;6.28;3.33;;;0.90;99.90;;;;;;6105255;23;20451;-81
2023/03/08 07:09:07;;;;;;;5.78;3.67;;;0.90;99.90;;;;;;6104558;23;20470;-83
2023/03/08 07:11:39;;;;;;;6.03;3.17;;;0.90;99.90;;;;;;6082986;23;20032;-81
2023/03/08 07:14:16;;;;;;;7.47;3.42;;;1.40;99.90;;;;;;6102135;23;20101;-81
2023/03/08 07:16:47;;;;;;;5.68;3.75;;;1.30;99.90;;;;;;6052099;23;20154;-83
2023/03/08 07:19:34;;;;;;;5.88;3.42;;;0.80;99.90;;;;;;6123528;23;20021;-82
2023/03/08 07:22:27;;;;;;;7.50;3.90;;;1.00;99.90;;;;;;6105992;23;20053;-81
2023/03/08 07:25:28;;;;;;;8.35;3.80;;;0.30;99.90;;;;;;6129293;23;20077;-81
2023/03/08 07:28:06;;;;;;;5.10;3.85;;;0.30;99.90;;;;;;6102426;23;20199;-78
2023/03/08 07:30:32;;;;;;;8.13;3.72;;;0.60;99.90;;;;;;6097635;23;20028;-80
2023/03/08 07:32:59;;;;;;;7.22;3.83;;;0.70;99.90;;;;;;6100439;23;20025;-80
2023/03/08 07:35:31;;;;;;;8.60;4.57;;;-0.10;99.90;;;;;;6101883;23;20046;-80
2023/03/08 07:38:33;;;;;;;6.03;4.03;;;1.50;99.90;;;;;;6101365;23;20018;-80
2023/03/08 07:40:59;;;;;;;7.90;3.83;;;0.70;99.90;;;;;;6067393;23;20010;-80
2023/03/08 07:43:25;;;;;;;6.20;5.07;;;1.00;99.90;;;;;;6087355;23;20081;-79
2023/03/08 07:45:51;;;;;;;7.72;4.15;;;0.80;99.90;;;;;;6100034;23;20014;-80
2023/03/08 07:48:17;;;;;;;5.80;3.92;;;0.80;99.90;;;;;;6098363;23;20018;-80
2023/03/08 07:50:44;;;;;;;5.05;4.20;;;0.70;99.90;;;;;;6099705;23;20112;-80
2023/03/08 07:53:10;;;;;;;7.88;3.80;;;0.70;99.90;;;;;;6099379;23;20046;-81
2023/03/08 07:55:37;;;;;;;7.57;4.32;;;1.00;99.90;;;;;;6097564;23;20076;-80
2023/03/08 07:58:06;;;;;;;7.57;4.57;;;1.80;99.90;;;;;;6099222;23;20021;-81
2023/03/08 08:00:32;;;;;;;7.20;4.28;;;0.90;99.90;;;;;;6098840;23;20018;-81
2023/03/08 08:02:59;;;;;;;6.55;4.55;;;-0.20;99.90;;;;;;6123972;23;20014;-81
2023/03/08 08:05:27;;;;;;;11.13;4.97;;;0.70;99.90;;;;;;6125248;23;20014;-81
2023/03/08 08:07:55;;;;;;;7.50;4.93;;;0.80;99.90;;;;;;6100502;23;20533;-80
2023/03/08 08:10:22;;;;;;;6.13;4.60;;;1.30;99.90;;;;;;6100823;23;20028;-81
2023/03/08 08:12:53;;;;;;;5.95;4.20;;;1.80;99.90;;;;;;6099617;23;20013;-81
2023/03/08 08:15:26;;;;;;;7.95;3.90;;;1.90;99.90;;;;;;6100938;23;20014;-81
2023/03/08 08:18:00;;;;;;;6.93;4.43;;;0.90;99.90;;;;;;6125793;23;20022;-81
2023/03/08 08:20:36;;;;;;;5.90;4.30;;;1.40;99.90;;;;;;6148619;23;20018;-81
2023/03/08 08:23:06;;;;;;;13.50;5.72;;;3.10;99.90;;;;;;6125548;23;20040;-81
2023/03/08 08:25:37;;;;;;;5.53;4.40;;;2.40;99.90;;;;;;6101796;23;20018;-81
2023/03/08 08:28:17;;;;;;;10.90;5.47;;;1.30;99.90;;;;;;6123561;23;20014;-82
2023/03/08 08:31:04;;;;;;;6.82;4.47;;;2.40;99.90;;;;;;6101099;23;20018;-81
2023/03/08 08:33:37;;;;;;;5.30;3.22;;;1.50;99.90;;;;;;6101088;23;20343;-81
2023/03/08 08:36:06;;;;;;;4.70;3.90;;;2.00;99.90;;;;;;6101875;23;20018;-81
2023/03/08 08:38:38;;;;;;;6.38;3.72;;;1.90;99.90;;;;;;6100376;23;20033;-81
2023/03/08 08:41:06;;;;;;;5.57;4.22;;;2.30;99.90;;;;;;6099468;23;20093;-81
2023/03/08 08:43:41;;;;;;;5.68;3.80;;;2.20;99.90;;;;;;6125478;23;20127;-81
2023/03/08 08:46:17;;;;;;;7.63;4.72;;;1.70;99.90;;;;;;6125084;23;20359;-81
2023/03/08 08:48:43;;;;;;;4.88;3.38;;;2.00;99.90;;;;;;6099809;23;20161;-81
2023/03/08 08:51:13;;;;;;;6.63;3.80;;;1.90;99.90;;;;;;6102081;23;20018;-81
2023/03/08 08:53:43;;;;;;;9.30;4.05;;;2.00;99.90;;;;;;6126773;23;20017;-81
2023/03/08 08:56:18;;;;;;;6.40;3.70;;;2.70;99.90;;;;;;6101134;23;20359;-82
2023/03/08 08:58:46;;;;;;;;;;;2.30;99.90;;;;;;6101053;23;20370;-82
2023/03/08 09:01:25;;;;;;;4.72;3.85;;;1.70;99.90;;;;;;6127676;23;19917;-81
2023/03/08 09:03:59;;;;;;;6.13;4.13;;;1.60;99.90;;;;;;6103132;23;20429;-81
2023/03/08 09:06:29;;;;;;;4.32;3.47;;;2.70;99.90;;;;;;6103985;23;20298;-81
2023/03/08 09:09:00;;;;;;;7.82;4.88;;;1.60;99.90;;;;;;6102073;23;20114;-81
2023/03/08 09:11:28;;;;;;;6.32;4.63;;;1.60;99.90;;;;;;6101265;23;20014;-81
2023/03/08 09:13:54;;;;;;;6.93;4.47;;;1.50;99.90;;;;;;6102848;23;20014;-82
2023/03/08 09:16:21;;;;;;;6.53;4.93;;;1.70;99.90;;;;;;6102963;23;20488;-81
2023/03/08 09:18:47;;;;;;;5.93;4.53;;;1.90;99.90;;;;;;6102812;23;20025;-82
2023/03/08 09:21:14;;;;;;;6.05;4.45;;;2.30;99.90;;;;;;6103002;23;20014;-82
2023/03/08 09:23:45;;;;;;;4.95;4.45;;;1.40;99.90;;;;;;6100798;23;20018;-82
2023/03/08 09:26:14;;;;;;;9.05;6.28;;;1.70;99.90;;;;;;6105528;23;20053;-82
2023/03/08 09:28:42;;;;;;;8.57;5.45;;;1.70;99.90;;;;;;6106638;23;20022;-82
2023/03/08 09:31:19;;;;;;;7.15;6.18;;;2.60;99.90;;;;;;6104412;23;20459;-82
2023/03/08 09:33:53;;;;;;;8.35;6.43;;;1.70;99.90;;;;;;6102090;23;20018;-81
2023/03/08 09:36:19;;;;;;;7.95;6.53;;;1.30;99.90;;;;;;6101314;23;20029;-81
2023/03/08 09:38:53;;;;;;;8.90;6.82;;;2.10;99.90;;;;;;6100436;23;20409;-81
2023/03/08 09:41:21;;;;;;;8.68;7.03;;;1.70;99.90;;;;;;6101845;23;20025;-81
2023/03/08 09:44:10;;;;;;;8.23;7.28;;;1.90;99.90;;;;;;6102555;23;20015;-81
2023/03/08 09:46:45;;;;;;;8.35;7.30;;;2.20;99.90;;;;;;6102554;23;20014;-81
2023/03/08 09:49:33;;;;;;;8.23;7.40;;;2.70;99.90;;;;;;6101090;23;20022;-82
2023/03/08 09:52:28;;;;;;;9.23;8.32;;;2.10;99.90;;;;;;6101232;23;20021;-81
2023/03/08 09:54:55;;;;;;;12.30;8.02;;;1.90;99.90;;;;;;6101828;23;20101;-81
2023/03/08 09:57:36;;;;;;;9.65;8.38;;;2.30;99.90;;;;;;6102001;23;20021;-82
2023/03/08 10:00:07;;;;;;;10.90;7.63;;;2.50;99.90;;;;;;6101488;23;20455;-81
2023/03/08 10:03:11;;;;;;;12.40;9.73;;;2.30;99.90;;;;;;6126832;23;20021;-81
2023/03/08 10:05:46;;;;;;;9.05;8.15;;;2.80;99.90;;;;;;6101337;23;20022;-80
2023/03/08 10:08:16;;;;;;;9.13;7.57;;;2.20;99.90;;;;;;6100860;23;20331;-81
2023/03/08 10:10:58;;;;;;;9.25;7.43;;;2.60;99.90;;;;;;6101041;23;20022;-81
2023/03/08 10:13:41;;;;;;;7.90;6.88;;;2.00;99.90;;;;;;6101266;23;20018;-81
2023/03/08 10:16:19;;;;;;;7.80;6.03;;;2.20;99.90;;;;;;6100266;23;20018;-81
2023/03/08 10:19:00;;;;;;;10.75;6.82;;;2.00;99.90;;;;;;6099354;23;20024;-81
2023/03/08 10:21:28;;;;;;;7.90;6.95;;;2.00;99.90;;;;;;6101890;23;20081;-81
2023/03/08 10:24:03;;;;;;;8.25;7.00;;;2.00;99.90;;;;;;6100272;23;20018;-81
2023/03/08 10:26:28;;;;;;;9.85;7.75;;;2.00;99.90;;;;;;6101433;23;20077;-81
2023/03/08 10:28:54;;;;;;;8.07;7.28;;;2.50;99.90;;;;;;6124694;23;20074;-81
2023/03/08 10:31:23;;;;;;;8.43;7.18;;;2.20;99.90;;;;;;6099497;23;20101;-81
2023/03/08 10:34:01;;;;;;;8.68;6.72;;;3.60;99.90;;;;;;6100185;23;20096;-81
2023/03/08 10:36:27;;;;;;;8.73;6.97;;;2.20;99.90;;;;;;6101628;23;20708;-81
2023/03/08 10:39:10;;;;;;;8.30;6.65;;;2.40;99.90;;;;;;6125426;23;20060;-81
2023/03/08 10:41:43;;;;;;;6.82;5.50;;;2.50;99.90;;;;;;6100397;23;20057;-81
2023/03/08 10:44:35;;;;;;;5.95;4.82;;;2.60;99.90;;;;;;6096572;23;20022;-81
2023/03/08 10:47:16;;;;;;;6.65;5.18;;;2.60;99.90;;;;;;6097853;23;20014;-81
2023/03/08 10:49:46;;;;;;;5.60;4.43;;;2.80;99.90;;;;;;6096191;23;20018;-81
2023/03/08 10:52:26;;;;;;;5.53;4.70;;;2.80;99.90;;;;;;6098789;23;20018;-81
2023/03/08 10:55:14;;;;;;;4.85;4.20;;;3.50;99.90;;;;;;6099244;23;20014;-82
2023/03/08 10:57:47;;;;;;;6.72;4.80;;;2.90;99.90;;;;;;6123851;23;20049;-81
2023/03/08 11:00:38;;;;;;;6.20;4.63;;;3.50;99.90;;;;;;6099187;23;20072;-81
2023/03/08 11:03:17;;;;;;;4.68;4.18;;;3.40;99.90;;;;;;6098528;23;20017;-82
2023/03/08 11:06:15;;;;;;;7.13;4.85;;;3.50;99.90;;;;;;6100034;23;20056;-82
2023/03/08 11:08:54;;;;;;;5.85;3.72;;;3.20;99.90;;;;;;6100112;23;20022;-82
2023/03/08 11:11:28;;;;;;;5.25;4.07;;;3.20;99.90;;;;;;6101865;23;20010;-82
2023/03/08 11:13:57;;;;;;;4.97;3.17;;;3.30;99.90;;;;;;6100814;23;20114;-82
2023/03/08 11:16:48;;;;;;;5.53;3.55;;;4.20;99.90;;;;;;6103601;23;20022;-81
2023/03/08 11:19:49;;;;;;;4.00;2.70;;;3.40;99.90;;;;;;6125761;23;20094;-82
2023/03/08 11:22:33;;;;;;;4.38;2.92;;;3.50;99.90;;;;;;6100390;23;20021;-81
2023/03/08 11:25:08;;;;;;;4.45;2.00;;;3.50;99.90;;;;;;6100799;23;20018;-81
2023/03/08 11:28:10;;;;;;;4.70;2.35;;;3.50;99.90;;;;;;6100785;23;20014;-81
2023/03/08 11:30:45;;;;;;;8.40;2.40;;;3.60;99.90;;;;;;6098365;23;20053;-82
2023/03/08 11:33:42;;;;;;;4.25;2.50;;;4.00;99.90;;;;;;6096419;23;20014;-82
2023/03/08 11:36:53;;;;;;;7.22;2.38;;;3.50;99.90;;;;;;6097954;23;20025;-81
2023/03/08 11:39:38;;;;;;;2.88;2.25;;;3.00;99.90;;;;;;6076144;23;20025;-82
2023/03/08 11:42:21;;;;;;;5.33;2.37;;;4.00;99.90;;;;;;6120200;23;20101;-82
2023/03/08 11:45:22;;;;;;;2.95;2.40;;;3.90;99.90;;;;;;6094828;23;20676;-81
2023/03/08 11:48:38;;;;;;;6.03;3.58;;;3.70;99.90;;;;;;6096868;23;20021;-81
2023/03/08 11:51:21;;;;;;;4.90;3.40;;;3.70;99.90;;;;;;6058209;23;20029;-81
2023/03/08 11:53:56;;;;;;;4.45;3.83;;;3.80;99.90;;;;;;6098955;23;20525;-82
2023/03/08 11:56:47;;;;;;;3.60;2.67;;;3.00;99.90;;;;;;6104520;23;20511;-82
2023/03/08 11:59:36;;;;;;;5.32;2.50;;;4.10;99.90;;;;;;6105280;23;20018;-84
2023/03/08 12:02:28;;;;;;;5.75;3.80;;;3.90;99.90;;;;;;6103348;23;20021;-83
2023/03/08 12:05:20;;;;;;;6.25;3.50;;;4.30;99.90;;;;;;6128398;23;20029;-83
2023/03/08 12:11:33;;;;;;;4.45;1.70;;;4.20;99.90;;;;;;6127263;23;20033;-83
2023/03/08 12:14:27;;;;;;;1.95;1.25;;;3.90;99.90;;;;;;6103340;23;20014;-83
2023/03/08 12:17:26;;;;;;;2.50;1.60;;;4.00;99.90;;;;;;6102327;23;20014;-83
2023/03/08 12:20:05;;;;;;;3.88;1.83;;;3.90;99.90;;;;;;6103837;23;20443;-82
2023/03/08 12:23:17;;;;;;;4.35;1.42;;;4.20;99.90;;;;;;6105442;23;20092;-82
2023/03/08 12:26:12;;;;;;;5.22;1.20;;;2.90;99.90;;;;;;6092451;23;20033;-82
2023/03/08 12:28:58;;;;;;;8.48;1.48;;;3.20;99.90;;;;;;6104878;23;20018;-83
2023/03/08 12:31:36;;;;;;;4.43;2.37;;;4.00;99.90;;;;;;6103181;23;20017;-84
2023/03/08 12:34:36;;;;;;;4.97;2.25;;;3.90;99.90;;;;;;6106321;23;20014;-82
2023/03/08 12:37:03;;;;;;;5.75;3.10;;;4.20;99.90;;;;;;6096857;23;20017;-83
2023/03/08 12:42:52;;;;;;;6.28;2.42;;;4.40;99.90;;;;;;6130819;23;20026;-82
2023/03/08 12:45:18;;;;;;;3.85;1.90;;;4.40;99.90;;;;;;6109015;23;20029;-82
2023/03/08 12:48:15;;;;;;;3.40;1.60;;;4.80;99.90;;;;;;6109128;23;20018;-82
2023/03/08 12:50:54;;;;;;;4.70;1.65;;;4.00;99.90;;;;;;6106108;23;20122;-82
2023/03/08 12:53:36;;;;;;;2.78;1.83;;;3.50;99.90;;;;;;6104796;23;20061;-82
2023/03/08 12:56:18;;;;;;;4.07;1.85;;;3.90;99.90;;;;;;6130165;23;20014;-83
2023/03/08 12:59:20;;;;;;;3.95;1.65;;;3.90;99.90;;;;;;6131426;23;20010;-83
2023/03/08 13:02:33;;;;;;;3.90;1.70;;;3.90;99.90;;;;;;6106179;23;20013;-83
2023/03/08 13:05:36;;;;;;;6.85;2.70;;;3.90;99.90;;;;;;6104637;23;20029;-83
2023/03/08 13:08:14;;;;;;;9.20;2.17;;;4.20;99.90;;;;;;6100597;23;20065;-84
2023/03/08 13:11:09;;;;;;;4.22;0.98;;;3.90;99.90;;;;;;6104434;23;20025;-83
2023/03/08 13:13:55;;;;;;;2.22;0.90;;;3.90;99.90;;;;;;6103293;23;20040;-83
2023/03/08 13:16:57;;;;;;;3.28;0.80;;;4.40;99.90;;;;;;6103075;23;20014;-83
2023/03/08 13:19:58;;;;;;;8.23;0.57;;;3.80;99.90;;;;;;6104306;23;20068;-84
2023/03/08 13:22:34;;;;;;;2.38;1.10;;;3.80;99.90;;;;;;6104341;23;20038;-82
2023/03/08 13:25:30;;;;;;;11.25;2.13;;;3.80;99.90;;;;;;6127791;23;20463;-83
2023/03/08 13:28:02;;;;;;;2.28;1.45;;;3.70;99.90;;;;;;6104853;23;20014;-82
2023/03/08 13:30:56;;;;;;;4.97;1.77;;;3.90;99.90;;;;;;6105595;23;20100;-82
2023/03/08 13:33:36;;;;;;;2.00;1.40;;;3.80;99.90;;;;;;6100544;23;20018;-83
2023/03/08 13:36:13;;;;;;;6.38;2.00;;;3.50;99.90;;;;;;6101836;23;20017;-84
2023/03/08 13:38:57;;;;;;;3.38;1.70;;;3.70;99.90;;;;;;6102565;23;20010;-82
2023/03/08 13:42:03;;;;;;;6.43;1.60;;;4.30;99.90;;;;;;6103026;23;20012;-83
2023/03/08 13:44:40;;;;;;;4.18;2.10;;;3.60;99.90;;;;;;6102746;23;20013;-83
2023/03/08 13:47:32;;;;;;;3.60;1.77;;;4.60;99.90;;;;;;6102399;23;20045;-82
2023/03/08 13:53:44;;;;;;;3.78;1.40;;;3.70;99.90;;;;;;6126498;23;20029;-82
2023/03/08 13:56:42;;;;;;;;;;;;;;;;;;;;;
2023/03/08 13:59:23;;;;;;;3.30;1.53;;;3.90;99.90;;;;;;6127617;23;20138;-83
2023/03/08 14:02:10;;;;;;;;;;;;;;;;;;;;;
2023/03/08 14:04:56;;;;;;;2.63;1.45;;;3.80;99.90;;;;;;6127267;23;20136;-82
2023/03/08 14:07:54;;;;;;;4.15;1.77;;;3.90;99.90;;;;;;6102311;23;20562;-83
2023/03/08 14:10:57;;;;;;;;;;;;;;;;;;;;;
2023/03/08 14:13:44;;;;;;;4.45;0.90;;;3.70;99.90;;;;;;6125116;23;20018;-82
2023/03/08 14:16:53;;;;;;;2.70;1.10;;;3.80;99.90;;;;;;6099466;23;20112;-83
2023/03/08 14:19:37;;;;;;;3.42;0.90;;;3.80;99.90;;;;;;6016950;23;20018;-82
2023/03/08 14:22:40;;;;;;;1.38;0.50;;;4.10;99.90;;;;;;6015201;23;20019;-82
2023/03/08 14:25:55;;;;;;;;;;;;;;;;;;;;;
2023/03/08 14:28:56;;;;;;;1.67;0.80;;;3.80;99.90;;;;;;6121945;23;20025;-82
2023/03/08 14:31:58;;;;;;;3.17;0.85;;;3.50;99.90;;;;;;6101100;23;20014;-81
2023/03/08 14:34:38;;;;;;;2.72;0.90;;;4.20;99.90;;;;;;6053883;23;20025;-82
2023/03/08 14:37:28;;;;;;;1.42;0.98;;;3.80;99.90;;;;;;6099402;23;20018;-82
2023/03/08 14:40:14;;;;;;;3.25;1.30;;;4.20;99.90;;;;;;6099903;23;20428;-82
2023/03/08 14:46:10;;;;;;;;;;;;;;;;;;;;;
2023/03/08 14:48:44;;;;;;;;;;;4.10;99.90;;;;;;6123820;23;20120;-82
2023/03/08 14:51:56;;;;;;;3.13;1.98;;;3.90;99.90;;;;;;6096011;23;19917;-82
2023/03/08 14:54:39;;;;;;;3.38;2.15;;;4.10;99.90;;;;;;6097071;23;20056;-82
2023/03/08 14:57:42;;;;;;;4.43;1.80;;;4.30;99.90;;;;;;6098486;23;20017;-82
2023/03/08 15:00:33;;;;;;;4.78;2.17;;;4.00;99.90;;;;;;6090573;23;20419;-82
2023/03/08 15:03:06;;;;;;;3.67;2.97;;;3.60;99.90;;;;;;6096589;23;20049;-82
2023/03/08 15:05:44;;;;;;;4.80;2.80;;;4.20;99.90;;;;;;6119555;23;20097;-82
2023/03/08 15:08:13;;;;;;;4.57;3.25;;;5.00;99.90;;;;;;6096452;23;20037;-82
2023/03/08 15:10:46;;;;;;;4.45;2.78;;;4.20;99.90;;;;;;6099601;23;20398;-82
2023/03/08 15:13:45;;;;;;;4.22;2.75;;;4.10;99.90;;;;;;6097346;23;20018;-82
2023/03/08 15:16:34;;;;;;;4.05;2.95;;;4.10;99.90;;;;;;6101353;23;20028;-82
2023/03/08 15:19:12;;;;;;;;;;;;;;;;;;;;;
2023/03/08 15:21:41;;;;;;;7.78;4.70;;;4.10;99.90;;;;;;6122954;23;20014;-82
2023/03/08 15:24:27;;;;;;;3.80;2.78;;;3.70;99.90;;;;;;6097460;23;20510;-82
2023/03/08 15:27:25;;;;;;;5.57;2.20;;;4.30;99.90;;;;;;6123296;23;20069;-82
2023/03/08 15:30:29;;;;;;;2.15;1.35;;;4.60;99.90;;;;;;6113622;23;20029;-82
2023/03/08 15:33:10;;;;;;;10.25;3.40;;;3.90;99.90;;;;;;6097318;23;20022;-82
2023/03/08 15:36:15;;;;;;;3.05;2.05;;;3.80;99.90;;;;;;6098681;23;20101;-82
2023/03/08 15:39:24;;;;;;;3.90;2.40;;;3.80;99.90;;;;;;6123366;23;20075;-83
2023/03/08 15:42:23;;;;;;;6.78;2.85;;;4.00;99.90;;;;;;6118902;23;20022;-82
2023/03/08 15:45:32;;;;;;;4.68;2.80;;;3.70;99.90;;;;;;6098177;23;20023;-82
2023/03/08 15:48:49;;;;;;;;;;;;;;;;;;;;;
2023/03/08 15:55:17;;;;;;;9.80;4.13;;;3.70;99.90;;;;;;6123036;23;20748;-83
2023/03/08 15:58:24;;;;;;;5.40;3.03;;;3.70;99.90;;;;;;6073567;23;20018;-83
2023/03/08 16:05:25;;;;;;;6.30;3.30;;;3.70;99.90;;;;;;6123082;23;20057;-82
2023/03/08 16:11:47;;;;;;;3.97;2.92;;;3.60;99.90;;;;;;6117851;23;20033;-82
2023/03/08 16:14:40;;;;;;;5.15;2.88;;;3.60;99.90;;;;;;6092541;23;20022;-82
2023/03/08 16:21:06;;;;;;;5.15;2.38;;;3.50;99.90;;;;;;6068331;23;20546;-81
2023/03/08 16:24:01;;;;;;;4.10;1.80;;;3.70;99.90;;;;;;6079378;23;20025;-81
2023/03/08 16:26:43;;;;;;;4.53;2.50;;;4.40;99.90;;;;;;6124080;23;20591;-81
2023/03/08 16:29:28;;;;;;;4.05;2.28;;;4.30;99.90;;;;;;6126284;23;20026;-81
2023/03/08 16:32:21;;;;;;;7.00;2.55;;;3.90;99.90;;;;;;6098455;23;20092;-81
2023/03/08 16:35:29;;;;;;;;;;;;;;;;;;;;;
2023/03/08 16:38:02;;;;;;;4.90;2.42;;;3.40;99.90;;;;;;6099102;23;20105;-82
2023/03/08 16:40:47;;;;;;;6.00;2.53;;;3.80;99.90;;;;;;6076454;23;20022;-81
2023/03/08 16:43:38;;;;;;;4.78;2.80;;;4.00;99.90;;;;;;6098777;23;20049;-81
2023/03/08 16:46:58;;;;;;;6.95;2.45;;;3.60;99.90;;;;;;6097687;23;20411;-81
2023/03/08 16:50:00;;;;;;;7.20;2.83;;;3.30;99.90;;;;;;6139213;23;20026;-82